Time;durP1;ratioP1;P1;durP2;ratioP2;P2;SDS_P1;SDS_P2;PMS_P1;PMS_P2;Temp;Humidity;BMP_temperature;BMP_pressure;BME280_temperature;BME280_humidity;BME280_pressure;Samples;Min_cycle;Max_cycle;Signal;HPM_P1;HPM_P2
2022/11/20 00:00:11;;;;;;;9.88;6.40;;;0.90;99.90;;;;;;6185625;23;20013;-78
2022/11/20 00:02:37;;;;;;;12.00;7.05;;;1.00;99.90;;;;;;6160781;23;20052;-78
2022/11/20 00:05:03;;;;;;;10.85;6.43;;;1.00;99.90;;;;;;6187749;23;20023;-78
2022/11/20 00:07:28;;;;;;;12.23;6.90;;;1.00;99.90;;;;;;6187792;23;20016;-78
2022/11/20 00:09:54;;;;;;;11.68;6.63;;;1.00;99.90;;;;;;6187342;23;20342;-78
2022/11/20 00:12:20;;;;;;;15.07;7.47;;;1.00;99.90;;;;;;6160971;23;20021;-78
2022/11/20 00:14:45;;;;;;;12.60;6.82;;;1.00;99.90;;;;;;6160842;23;20017;-78
2022/11/20 00:17:11;;;;;;;12.30;7.22;;;0.90;99.90;;;;;;6160948;23;20021;-78
2022/11/20 00:19:36;;;;;;;14.23;6.85;;;1.00;99.90;;;;;;6161005;23;20393;-78
2022/11/20 00:22:02;;;;;;;12.50;7.65;;;1.00;99.90;;;;;;6187105;23;20453;-78
2022/11/20 00:24:28;;;;;;;13.63;7.70;;;1.10;99.90;;;;;;6187159;23;20017;-78
2022/11/20 00:26:53;;;;;;;13.10;8.00;;;1.10;99.90;;;;;;6160941;23;20079;-78
2022/11/20 00:29:19;;;;;;;16.10;8.88;;;1.10;99.90;;;;;;6160581;23;20052;-78
2022/11/20 00:31:44;;;;;;;15.55;8.18;;;1.10;99.90;;;;;;6186316;23;20016;-78
2022/11/20 00:34:10;;;;;;;13.52;8.00;;;1.10;99.90;;;;;;6186011;23;20052;-78
2022/11/20 00:36:36;;;;;;;15.75;8.57;;;1.10;99.90;;;;;;6159530;23;20049;-78
2022/11/20 00:39:02;;;;;;;13.63;7.70;;;1.10;99.90;;;;;;6186587;23;20337;-78
2022/11/20 00:41:29;;;;;;;15.98;9.13;;;1.10;99.90;;;;;;6187290;23;20013;-78
2022/11/20 00:43:55;;;;;;;16.13;8.63;;;1.10;99.90;;;;;;6160696;23;20456;-79
2022/11/20 00:46:23;;;;;;;13.07;8.00;;;1.10;99.90;;;;;;6187414;23;20017;-78
2022/11/20 00:48:49;;;;;;;14.57;8.10;;;1.10;99.90;;;;;;6187014;23;20028;-78
2022/11/20 00:51:17;;;;;;;15.20;8.35;;;1.10;99.90;;;;;;6160721;23;20024;-78
2022/11/20 00:53:43;;;;;;;15.05;7.85;;;1.20;99.90;;;;;;6187258;23;20021;-78
2022/11/20 00:56:15;;;;;;;16.33;8.60;;;1.20;99.90;;;;;;6160621;23;20021;-78
2022/11/20 00:58:43;;;;;;;12.85;7.70;;;1.10;99.90;;;;;;6187210;23;20013;-78
2022/11/20 01:01:13;;;;;;;16.25;9.13;;;1.10;99.90;;;;;;6160363;23;20390;-78
2022/11/20 01:03:44;;;;;;;14.80;8.55;;;1.10;99.90;;;;;;6160528;23;20021;-78
2022/11/20 01:06:13;;;;;;;14.52;7.82;;;1.20;99.90;;;;;;6160507;23;20024;-78
2022/11/20 01:08:39;;;;;;;14.02;8.23;;;1.20;99.90;;;;;;6187221;23;20048;-78
2022/11/20 01:11:08;;;;;;;12.77;8.13;;;1.20;99.90;;;;;;6187184;23;20017;-78
2022/11/20 01:13:37;;;;;;;13.05;7.72;;;1.20;99.90;;;;;;6186740;23;20020;-78
2022/11/20 01:16:20;;;;;;;14.43;8.43;;;1.20;99.90;;;;;;6160218;23;20077;-78
2022/11/20 01:18:47;;;;;;;;;;;1.20;99.90;;;;;;6187617;23;20017;-78
2022/11/20 01:21:19;;;;;;;12.80;7.57;;;1.20;99.90;;;;;;6186568;23;19993;-78
2022/11/20 01:23:46;;;;;;;13.73;8.05;;;1.20;99.90;;;;;;6186980;23;20028;-78
2022/11/20 01:26:16;;;;;;;14.23;8.18;;;1.30;99.90;;;;;;6187010;23;20013;-78
2022/11/20 01:28:42;;;;;;;17.77;9.10;;;1.30;99.90;;;;;;6186915;23;20016;-79
2022/11/20 01:31:23;;;;;;;15.05;8.60;;;1.30;99.90;;;;;;6160329;23;20021;-78
2022/11/20 01:33:52;;;;;;;14.82;8.77;;;1.30;99.90;;;;;;6186642;23;20025;-78
2022/11/20 01:36:20;;;;;;;14.88;8.63;;;1.30;99.90;;;;;;6160214;23;20323;-79
2022/11/20 01:38:47;;;;;;;16.65;8.60;;;1.30;99.90;;;;;;6186803;23;20101;-79
2022/11/20 01:43:20;;;;;;;13.93;8.27;;;1.30;99.90;;;;;;6160061;23;20389;-78
2022/11/20 01:44:01;;;;;;;16.25;8.30;;;1.30;99.90;;;;;;6159984;23;20025;-79
2022/11/20 01:46:27;;;;;;;14.35;8.65;;;1.30;99.90;;;;;;6160151;23;20049;-79
2022/11/20 01:49:21;;;;;;;13.00;8.13;;;1.30;99.90;;;;;;6186912;23;20053;-78
2022/11/20 01:51:58;;;;;;;15.15;7.32;;;1.30;99.90;;;;;;6160193;23;20071;-79
2022/11/20 01:54:48;;;;;;;15.52;8.35;;;1.30;99.90;;;;;;6186681;23;20017;-79
2022/11/20 01:57:17;;;;;;;15.73;8.88;;;1.30;99.90;;;;;;6160019;23;20421;-79
2022/11/20 01:59:53;;;;;;;16.00;8.70;;;1.30;99.90;;;;;;6160091;23;20031;-79
2022/11/20 02:02:20;;;;;;;14.80;8.82;;;1.40;99.90;;;;;;6186192;23;20319;-79
2022/11/20 02:04:49;;;;;;;14.40;8.80;;;1.30;99.90;;;;;;6186590;23;20009;-79
2022/11/20 02:07:15;;;;;;;14.57;8.10;;;1.30;99.90;;;;;;6186662;23;20013;-78
2022/11/20 02:09:41;;;;;;;14.30;7.80;;;1.30;99.90;;;;;;6186260;23;20021;-78
2022/11/20 02:13:42;;;;;;;14.02;8.65;;;1.30;99.90;;;;;;6159955;23;20023;-79
2022/11/20 02:14:52;;;;;;;14.48;8.55;;;1.40;99.90;;;;;;6186341;23;20044;-78
2022/11/20 02:17:18;;;;;;;14.57;9.20;;;1.30;99.90;;;;;;6186543;23;20501;-79
2022/11/20 02:19:44;;;;;;;13.35;8.02;;;1.30;99.90;;;;;;6159860;23;20024;-79
2022/11/20 02:22:20;;;;;;;14.70;9.07;;;1.40;99.90;;;;;;6186384;23;20025;-79
2022/11/20 02:24:48;;;;;;;15.75;8.30;;;1.30;99.90;;;;;;6159814;23;20075;-79
2022/11/20 02:27:15;;;;;;;15.48;8.38;;;1.40;99.90;;;;;;6159780;23;20052;-79
2022/11/20 02:29:52;;;;;;;15.50;8.88;;;1.40;99.90;;;;;;6186403;23;20064;-79
2022/11/20 02:32:21;;;;;;;15.00;8.43;;;1.40;99.90;;;;;;6186185;23;20028;-79
2022/11/20 02:34:47;;;;;;;14.27;8.88;;;1.30;99.90;;;;;;6159699;23;20051;-79
2022/11/20 02:37:14;;;;;;;14.27;8.43;;;1.40;99.90;;;;;;6186402;23;20040;-79
2022/11/20 02:39:41;;;;;;;12.95;7.78;;;1.40;99.90;;;;;;6159762;23;20053;-79
2022/11/20 02:42:06;;;;;;;14.75;8.23;;;1.40;99.90;;;;;;6159514;23;20025;-79
2022/11/20 02:44:32;;;;;;;14.13;8.32;;;1.40;99.90;;;;;;6160036;23;20092;-79
2022/11/20 02:46:59;;;;;;;15.15;8.73;;;1.40;99.90;;;;;;6159775;23;20092;-79
2022/11/20 02:49:24;;;;;;;13.68;7.90;;;1.40;99.90;;;;;;6159720;23;20028;-79
2022/11/20 02:51:50;;;;;;;13.88;8.00;;;1.40;99.90;;;;;;6185895;23;20017;-79
2022/11/20 02:54:16;;;;;;;16.38;8.32;;;1.50;99.90;;;;;;6185999;23;20021;-79
2022/11/20 02:56:42;;;;;;;13.70;7.88;;;1.50;99.90;;;;;;6159643;23;20017;-79
2022/11/20 02:59:07;;;;;;;12.57;7.40;;;1.40;99.90;;;;;;6159715;23;20028;-79
2022/11/20 03:01:33;;;;;;;13.63;7.95;;;1.50;99.90;;;;;;6159491;23;20017;-79
2022/11/20 03:03:59;;;;;;;11.15;7.32;;;1.50;99.90;;;;;;6186294;23;20017;-79
2022/11/20 03:06:25;;;;;;;14.00;8.20;;;1.50;99.90;;;;;;6186268;23;20013;-79
2022/11/20 03:08:50;;;;;;;13.63;8.18;;;1.50;99.90;;;;;;6159542;23;20017;-79
2022/11/20 03:11:16;;;;;;;15.63;8.27;;;1.50;99.90;;;;;;6185830;23;20323;-79
2022/11/20 03:13:42;;;;;;;16.30;8.90;;;1.50;99.90;;;;;;6159410;23;20319;-79
2022/11/20 03:16:14;;;;;;;16.45;8.75;;;1.50;99.90;;;;;;6185691;23;20560;-79
2022/11/20 03:18:40;;;;;;;15.18;9.40;;;1.50;99.90;;;;;;6159617;23;20057;-79
2022/11/20 03:21:06;;;;;;;17.02;9.30;;;1.50;99.90;;;;;;6185733;23;20442;-79
2022/11/20 03:23:33;;;;;;;15.23;9.70;;;1.50;99.90;;;;;;6185835;23;20337;-79
2022/11/20 03:26:09;;;;;;;18.27;9.55;;;1.50;99.90;;;;;;6186117;23;20016;-79
2022/11/20 03:28:34;;;;;;;15.13;9.05;;;1.50;99.90;;;;;;6159574;23;20048;-80
2022/11/20 03:31:09;;;;;;;15.07;8.90;;;1.50;99.90;;;;;;6159419;23;20373;-79
2022/11/20 03:33:35;;;;;;;15.68;8.70;;;1.50;99.90;;;;;;6186164;23;20088;-79
2022/11/20 03:36:06;;;;;;;15.50;8.45;;;1.50;99.90;;;;;;6186266;23;20397;-79
2022/11/20 03:38:32;;;;;;;16.25;9.35;;;1.50;99.90;;;;;;6187959;23;20009;-79
2022/11/20 03:41:03;;;;;;;15.90;9.60;;;1.50;99.90;;;;;;6187956;23;20017;-79
2022/11/20 03:43:28;;;;;;;15.20;8.77;;;1.50;99.90;;;;;;6187912;23;20052;-79
2022/11/20 03:45:54;;;;;;;15.57;9.05;;;1.60;99.90;;;;;;6187914;23;20009;-80
2022/11/20 03:48:20;;;;;;;14.50;9.18;;;1.50;99.90;;;;;;6187890;23;20460;-80
2022/11/20 03:50:47;;;;;;;15.48;9.02;;;1.60;99.90;;;;;;6161211;23;20353;-80
2022/11/20 03:53:14;;;;;;;15.73;9.02;;;1.50;99.90;;;;;;6188138;23;20113;-80
2022/11/20 03:55:39;;;;;;;15.75;9.80;;;1.50;99.90;;;;;;6187877;23;20088;-80
2022/11/20 03:58:05;;;;;;;14.98;9.23;;;1.50;99.90;;;;;;6161254;23;20079;-80
2022/11/20 04:00:30;;;;;;;15.10;8.68;;;1.50;99.90;;;;;;6161168;23;20017;-80
2022/11/20 04:03:03;;;;;;;13.75;8.20;;;1.50;99.90;;;;;;6161188;23;20071;-80
2022/11/20 04:05:29;;;;;;;13.80;8.68;;;1.50;99.90;;;;;;6187372;23;20456;-80
2022/11/20 04:07:54;;;;;;;13.27;8.57;;;1.50;99.90;;;;;;6161090;23;20472;-80
2022/11/20 04:10:20;;;;;;;12.48;7.75;;;1.50;99.90;;;;;;6161050;23;20052;-80
2022/11/20 04:12:46;;;;;;;15.07;9.02;;;1.50;99.90;;;;;;6161018;23;20016;-79
2022/11/20 04:15:12;;;;;;;14.45;8.02;;;1.50;99.90;;;;;;6160830;23;20021;-79
2022/11/20 04:17:37;;;;;;;20.88;8.65;;;1.50;99.90;;;;;;6160935;23;20013;-80
2022/11/20 04:20:04;;;;;;;17.25;8.50;;;1.50;99.90;;;;;;6187280;23;20052;-80
2022/11/20 04:22:29;;;;;;;13.45;8.52;;;1.50;99.90;;;;;;6160834;23;20021;-79
2022/11/20 04:24:55;;;;;;;15.18;8.38;;;1.50;99.90;;;;;;6187702;23;20468;-80
2022/11/20 04:27:20;;;;;;;13.73;8.40;;;1.50;99.90;;;;;;6161496;23;20121;-79
2022/11/20 04:29:46;;;;;;;15.10;8.35;;;1.50;99.90;;;;;;6160873;23;20055;-79
2022/11/20 04:32:12;;;;;;;14.32;8.05;;;1.50;99.90;;;;;;6187528;23;20017;-80
2022/11/20 04:34:37;;;;;;;14.70;8.35;;;1.60;99.90;;;;;;6160847;23;20068;-79
2022/11/20 04:37:03;;;;;;;15.15;8.27;;;1.50;99.90;;;;;;6160806;23;20024;-79
2022/11/20 04:39:29;;;;;;;15.43;8.43;;;1.50;99.90;;;;;;6187518;23;20017;-79
2022/11/20 04:44:39;;;;;;;13.30;7.82;;;1.60;99.90;;;;;;6187455;23;20139;-80
2022/11/20 04:47:04;;;;;;;13.35;7.50;;;1.60;99.90;;;;;;6160394;23;20067;-80
2022/11/20 04:49:31;;;;;;;14.98;7.65;;;1.60;99.90;;;;;;6160532;23;20098;-80
2022/11/20 04:51:57;;;;;;;14.50;8.45;;;1.60;99.90;;;;;;6187322;23;20017;-80
2022/11/20 04:54:23;;;;;;;14.57;8.18;;;1.70;99.90;;;;;;6187314;23;20017;-79
2022/11/20 04:56:49;;;;;;;14.90;8.45;;;1.70;99.90;;;;;;6187315;23;20044;-80
2022/11/20 04:59:15;;;;;;;14.77;8.02;;;1.60;99.90;;;;;;6160682;23;20036;-79
2022/11/20 05:01:40;;;;;;;15.30;8.25;;;1.60;99.90;;;;;;6187155;23;20017;-79
2022/11/20 05:04:06;;;;;;;13.85;7.97;;;1.60;99.90;;;;;;6187223;23;20016;-80
2022/11/20 05:06:32;;;;;;;14.48;8.68;;;1.70;99.90;;;;;;6187149;23;20043;-79
2022/11/20 05:08:58;;;;;;;14.00;7.63;;;1.70;99.90;;;;;;6186846;23;20009;-79
2022/11/20 05:11:24;;;;;;;16.50;8.43;;;1.70;99.90;;;;;;6186807;23;20013;-79
2022/11/20 05:13:50;;;;;;;14.27;7.78;;;1.70;99.90;;;;;;6186729;23;20023;-79
2022/11/20 05:16:22;;;;;;;14.88;7.85;;;1.70;99.90;;;;;;6186483;23;20434;-80
2022/11/20 05:18:49;;;;;;;11.95;7.95;;;1.70;99.90;;;;;;6160394;23;20021;-80
2022/11/20 05:21:16;;;;;;;14.00;7.95;;;1.70;99.90;;;;;;6160331;23;20017;-80
2022/11/20 05:23:42;;;;;;;13.27;8.55;;;1.80;99.90;;;;;;6186709;23;20025;-80
2022/11/20 05:26:16;;;;;;;13.70;8.48;;;1.80;99.90;;;;;;6160266;23;20433;-80
2022/11/20 05:28:43;;;;;;;16.30;8.73;;;1.80;99.90;;;;;;6186988;23;20017;-80
2022/11/20 05:31:11;;;;;;;15.73;8.68;;;1.80;99.90;;;;;;6160346;23;20087;-80
2022/11/20 05:33:39;;;;;;;13.40;8.15;;;1.80;99.90;;;;;;6186535;23;20381;-80
2022/11/20 05:36:05;;;;;;;15.30;8.68;;;1.70;99.90;;;;;;6160282;23;20092;-80
2022/11/20 05:38:31;;;;;;;15.77;8.25;;;1.80;99.90;;;;;;6160268;23;20021;-80
2022/11/20 05:41:20;;;;;;;14.00;8.30;;;1.80;99.90;;;;;;6186786;23;20021;-80
2022/11/20 05:43:47;;;;;;;15.18;7.93;;;1.80;99.90;;;;;;6160289;23;20025;-80
2022/11/20 05:46:15;;;;;;;13.32;7.93;;;1.80;99.90;;;;;;6160174;23;20533;-80
2022/11/20 05:48:42;;;;;;;12.95;8.23;;;1.70;99.90;;;;;;6160175;23;20051;-80
2022/11/20 05:51:10;;;;;;;14.20;7.60;;;1.80;99.90;;;;;;6186555;23;20027;-80
2022/11/20 05:53:36;;;;;;;15.43;8.38;;;1.70;99.90;;;;;;6160052;23;20417;-80
2022/11/20 05:56:05;;;;;;;14.30;7.97;;;1.80;99.90;;;;;;6186679;23;20013;-80
2022/11/20 05:58:32;;;;;;;13.70;8.00;;;1.80;99.90;;;;;;6186284;23;20442;-80
2022/11/20 06:01:07;;;;;;;14.25;8.23;;;1.80;99.90;;;;;;6186554;23;20044;-80
2022/11/20 06:03:33;;;;;;;13.73;8.45;;;1.80;99.90;;;;;;6186662;23;20013;-80
2022/11/20 06:06:00;;;;;;;14.65;8.73;;;1.80;99.90;;;;;;6186645;23;20013;-80
2022/11/20 06:08:25;;;;;;;13.95;7.93;;;1.80;99.90;;;;;;6186544;23;20020;-80
2022/11/20 06:10:51;;;;;;;13.23;8.23;;;1.80;99.90;;;;;;6159869;23;20021;-80
2022/11/20 06:13:17;;;;;;;13.52;8.02;;;1.80;99.90;;;;;;6159935;23;20017;-80
2022/11/20 06:15:48;;;;;;;14.35;8.75;;;1.90;99.90;;;;;;6159696;23;20017;-80
2022/11/20 06:18:14;;;;;;;14.25;7.82;;;1.80;99.90;;;;;;6186612;23;20050;-80
2022/11/20 06:20:41;;;;;;;14.05;9.07;;;1.90;99.90;;;;;;6160037;23;20465;-80
2022/11/20 06:23:06;;;;;;;16.00;8.68;;;1.90;99.90;;;;;;6186354;23;20021;-80
2022/11/20 06:25:32;;;;;;;14.68;8.15;;;1.90;99.90;;;;;;6159830;23;20017;-80
2022/11/20 06:27:58;;;;;;;15.43;8.20;;;1.90;99.90;;;;;;6159840;23;20105;-80
2022/11/20 06:30:23;;;;;;;14.25;8.20;;;1.90;99.90;;;;;;6186178;23;20044;-80
2022/11/20 06:32:49;;;;;;;14.77;8.40;;;1.90;99.90;;;;;;6159784;23;20342;-80
2022/11/20 06:35:15;;;;;;;13.25;7.47;;;1.90;99.90;;;;;;6185971;23;20292;-80
2022/11/20 06:37:40;;;;;;;13.40;8.15;;;2.00;99.90;;;;;;6186375;23;20028;-80
2022/11/20 06:40:06;;;;;;;14.50;8.25;;;1.90;99.90;;;;;;6186011;23;20576;-80
2022/11/20 06:42:32;;;;;;;13.77;8.15;;;2.00;99.90;;;;;;6159618;23;20096;-80
2022/11/20 06:44:58;;;;;;;15.57;8.68;;;1.90;99.90;;;;;;6159744;23;20056;-79
2022/11/20 06:47:23;;;;;;;15.77;8.75;;;2.00;99.90;;;;;;6160045;23;20028;-80
2022/11/20 06:49:49;;;;;;;14.73;8.55;;;2.00;99.90;;;;;;6186359;23;20020;-79
2022/11/20 06:52:15;;;;;;;15.90;8.70;;;2.00;99.90;;;;;;6186263;23;20021;-80
2022/11/20 06:54:40;;;;;;;15.98;8.25;;;2.00;99.90;;;;;;6186306;23;20036;-79
2022/11/20 06:57:06;;;;;;;16.15;8.75;;;2.00;99.90;;;;;;6159732;23;20021;-80
2022/11/20 06:59:31;;;;;;;15.48;8.90;;;2.10;99.90;;;;;;6185953;23;20071;-80
2022/11/20 07:01:57;;;;;;;13.18;8.18;;;2.00;99.90;;;;;;6186127;23;20067;-80
2022/11/20 07:04:23;;;;;;;19.20;9.43;;;2.00;99.90;;;;;;6186281;23;20020;-80
2022/11/20 07:06:49;;;;;;;19.75;11.10;;;2.00;99.90;;;;;;6159281;23;20025;-80
2022/11/20 07:09:14;;;;;;;19.50;12.02;;;2.00;99.90;;;;;;6185915;23;20080;-80
2022/11/20 07:11:40;;;;;;;15.38;9.43;;;2.10;99.90;;;;;;6160274;23;20326;-80
2022/11/20 07:14:06;;;;;;;13.15;8.05;;;2.10;99.90;;;;;;6161090;23;20028;-79
2022/11/20 07:16:31;;;;;;;16.55;8.88;;;2.00;99.90;;;;;;6161287;23;20025;-80
2022/11/20 07:18:57;;;;;;;14.18;8.63;;;2.00;99.90;;;;;;6160956;23;20345;-80
2022/11/20 07:21:23;;;;;;;14.50;8.48;;;2.10;99.90;;;;;;6160034;23;20096;-80
2022/11/20 07:23:48;;;;;;;14.50;8.60;;;2.10;99.90;;;;;;6159390;23;20021;-80
2022/11/20 07:26:14;;;;;;;14.85;8.68;;;2.00;99.90;;;;;;6161131;23;20021;-80
2022/11/20 07:28:40;;;;;;;15.18;8.75;;;2.10;99.90;;;;;;6188050;23;20096;-81
2022/11/20 07:31:08;;;;;;;13.38;8.00;;;2.10;99.90;;;;;;6188062;23;20017;-80
2022/11/20 07:33:34;;;;;;;16.02;8.85;;;2.10;99.90;;;;;;6187645;23;20021;-80
2022/11/20 07:36:00;;;;;;;16.02;8.52;;;2.10;99.90;;;;;;6161115;23;20100;-80
2022/11/20 07:38:26;;;;;;;12.95;7.68;;;2.10;99.90;;;;;;6187894;23;20049;-80
2022/11/20 07:40:57;;;;;;;15.45;8.18;;;2.10;99.90;;;;;;6188239;23;20333;-83
2022/11/20 07:43:23;;;;;;;15.10;8.52;;;2.10;99.90;;;;;;6161121;23;20083;-81
2022/11/20 07:45:49;;;;;;;12.50;8.30;;;2.10;99.90;;;;;;6161207;23;20017;-80
2022/11/20 07:48:15;;;;;;;13.65;8.20;;;2.10;99.90;;;;;;6187597;23;20023;-81
2022/11/20 07:50:41;;;;;;;14.48;8.07;;;2.10;99.90;;;;;;6187763;23;20020;-81
2022/11/20 07:53:06;;;;;;;14.35;8.73;;;2.10;99.90;;;;;;6161180;23;20460;-81
2022/11/20 07:55:32;;;;;;;14.48;8.48;;;2.10;99.90;;;;;;6160033;23;20024;-80
2022/11/20 07:57:58;;;;;;;13.27;7.97;;;2.10;99.90;;;;;;6187534;23;20009;-81
2022/11/20 08:00:25;;;;;;;16.70;8.73;;;2.10;99.90;;;;;;6160805;23;20047;-81
2022/11/20 08:02:54;;;;;;;15.40;9.10;;;2.10;99.90;;;;;;6186966;23;20021;-81
2022/11/20 08:05:20;;;;;;;14.75;8.23;;;2.10;99.90;;;;;;6160769;23;20024;-81
2022/11/20 08:07:45;;;;;;;17.17;9.25;;;2.10;99.90;;;;;;6160776;23;20017;-81
2022/11/20 08:10:14;;;;;;;16.63;8.93;;;2.10;99.90;;;;;;6160664;23;20394;-81
2022/11/20 08:15:35;;;;;;;12.93;7.93;;;2.20;99.90;;;;;;6160390;23;20029;-81
2022/11/20 08:18:03;;;;;;;15.45;8.18;;;2.10;99.90;;;;;;6160540;23;20063;-80
2022/11/20 08:20:29;;;;;;;13.48;8.23;;;2.30;99.90;;;;;;6160638;23;20420;-81
2022/11/20 08:23:01;;;;;;;14.57;8.20;;;2.20;99.90;;;;;;6160417;23;20063;-81
2022/11/20 08:25:28;;;;;;;12.07;8.00;;;2.20;99.90;;;;;;6160725;23;20092;-81
2022/11/20 08:27:56;;;;;;;13.90;8.20;;;2.20;99.90;;;;;;6160634;23;20256;-81
2022/11/20 08:30:22;;;;;;;13.32;8.00;;;2.20;99.90;;;;;;6160759;23;20021;-82
2022/11/20 08:32:47;;;;;;;13.32;7.82;;;2.20;99.90;;;;;;6160633;23;20456;-81
2022/11/20 08:35:13;;;;;;;15.73;8.68;;;2.20;99.90;;;;;;6161231;23;20021;-82
2022/11/20 08:37:41;;;;;;;13.10;8.55;;;2.30;99.90;;;;;;6187207;23;20017;-82
2022/11/20 08:40:10;;;;;;;13.95;8.00;;;2.30;99.90;;;;;;6160650;23;20100;-82
2022/11/20 08:42:35;;;;;;;14.15;8.40;;;2.30;99.90;;;;;;6160102;23;20055;-81
2022/11/20 08:45:01;;;;;;;15.25;8.50;;;2.30;99.90;;;;;;6160588;23;20032;-82
2022/11/20 08:47:27;;;;;;;16.60;9.25;;;2.40;99.90;;;;;;6160313;23;20016;-82
2022/11/20 08:49:52;;;;;;;16.25;8.90;;;2.40;99.90;;;;;;6160407;23;20028;-82
2022/11/20 08:52:18;;;;;;;14.85;8.95;;;2.50;99.90;;;;;;6160361;23;20096;-81
2022/11/20 08:54:44;;;;;;;16.20;9.40;;;2.50;99.90;;;;;;6186606;23;20021;-83
2022/11/20 08:57:09;;;;;;;15.52;8.65;;;2.50;99.90;;;;;;6186548;23;20017;-81
2022/11/20 08:59:35;;;;;;;12.52;8.32;;;2.50;99.90;;;;;;6186970;23;20055;-81
2022/11/20 09:02:00;;;;;;;16.77;11.00;;;2.50;99.90;;;;;;6186825;23;20021;-81
2022/11/20 09:04:26;;;;;;;22.88;17.58;;;2.50;99.90;;;;;;6160291;23;20060;-81
2022/11/20 09:06:52;;;;;;;19.30;11.82;;;2.50;99.90;;;;;;6160122;23;20039;-81
2022/11/20 09:09:18;;;;;;;17.00;11.45;;;2.50;99.90;;;;;;6186457;23;20028;-80
2022/11/20 09:11:44;;;;;;;15.55;8.77;;;2.60;99.90;;;;;;6186319;23;20013;-81
2022/11/20 09:14:10;;;;;;;15.25;9.02;;;2.60;99.90;;;;;;6159393;23;20021;-81
2022/11/20 09:16:36;;;;;;;14.80;10.05;;;2.70;99.90;;;;;;6160218;23;20028;-81
2022/11/20 09:19:01;;;;;;;15.80;9.10;;;2.70;99.90;;;;;;6160070;23;20044;-81
2022/11/20 09:21:27;;;;;;;14.43;8.32;;;2.70;99.90;;;;;;6160012;23;20017;-81
2022/11/20 09:23:53;;;;;;;14.10;8.45;;;2.70;99.90;;;;;;6160059;23;20104;-81
2022/11/20 09:26:19;;;;;;;15.75;8.95;;;2.70;99.90;;;;;;6159910;23;20346;-81
2022/11/20 09:28:44;;;;;;;17.35;9.02;;;2.80;99.90;;;;;;6186458;23;20071;-81
2022/11/20 09:31:24;;;;;;;14.85;9.85;;;2.70;99.90;;;;;;6186264;23;20315;-80
2022/11/20 09:33:50;;;;;;;14.77;7.57;;;2.80;99.90;;;;;;6159424;23;20024;-81
2022/11/20 09:36:18;;;;;;;13.38;7.78;;;2.80;99.90;;;;;;6159845;23;20048;-81
2022/11/20 09:38:47;;;;;;;13.88;8.07;;;2.80;99.90;;;;;;6185950;23;20024;-82
2022/11/20 09:41:49;;;;;;;13.75;8.95;;;2.90;99.90;;;;;;6186258;23;20016;-81
2022/11/20 09:44:37;;;;;;;13.60;8.70;;;2.90;99.90;;;;;;6186305;23;20020;-80
2022/11/20 09:47:27;;;;;;;14.43;8.52;;;3.00;99.90;;;;;;6159599;23;20059;-80
2022/11/20 09:50:20;;;;;;;13.50;7.65;;;3.00;99.90;;;;;;6186259;23;20021;-80
2022/11/20 09:53:07;;;;;;;14.10;8.05;;;3.20;99.90;;;;;;6159726;23;20031;-80
2022/11/20 09:55:35;;;;;;;14.45;8.02;;;3.20;99.90;;;;;;6185809;23;20024;-81
2022/11/20 09:58:05;;;;;;;12.82;7.68;;;3.20;99.90;;;;;;6159511;23;20020;-81
2022/11/20 10:00:30;;;;;;;12.00;6.80;;;3.30;99.90;;;;;;6186218;23;20017;-81
2022/11/20 10:03:14;;;;;;;12.35;7.03;;;3.40;99.90;;;;;;6186004;23;20021;-81
2022/11/20 10:05:45;;;;;;;12.93;7.80;;;3.40;99.90;;;;;;6159565;23;20361;-81
2022/11/20 10:08:25;;;;;;;11.35;7.55;;;3.40;99.90;;;;;;6159619;23;20019;-81
2022/11/20 10:10:56;;;;;;;13.88;7.68;;;3.50;99.90;;;;;;6185827;23;20029;-81
2022/11/20 10:13:35;;;;;;;13.77;8.15;;;3.60;99.90;;;;;;6159048;23;20017;-80
2022/11/20 10:16:30;;;;;;;13.50;8.27;;;3.60;99.90;;;;;;6154296;23;20025;-81
2022/11/20 10:19:41;;;;;;;13.13;7.25;;;3.60;99.90;;;;;;6105993;23;20021;-81
2022/11/20 10:22:40;;;;;;;14.73;7.75;;;3.60;99.90;;;;;;6096516;23;20454;-80
2022/11/20 10:25:14;;;;;;;14.50;8.15;;;3.80;99.90;;;;;;6129941;23;20045;-81
2022/11/20 10:27:58;;;;;;;15.10;8.15;;;3.80;99.90;;;;;;6129888;23;20016;-81
2022/11/20 10:30:25;;;;;;;14.10;8.40;;;3.90;99.90;;;;;;6129925;23;20454;-81
2022/11/20 10:33:11;;;;;;;13.02;8.05;;;3.90;99.90;;;;;;6129872;23;20009;-82
2022/11/20 10:35:49;;;;;;;14.63;8.88;;;3.90;99.90;;;;;;6130359;23;20028;-81
2022/11/20 10:38:31;;;;;;;12.30;8.07;;;3.90;99.90;;;;;;6129889;23;20025;-83
2022/11/20 10:43:50;;;;;;;15.48;9.57;;;4.00;99.90;;;;;;6129814;23;20370;-81
2022/11/20 10:46:21;;;;;;;13.82;8.38;;;3.80;99.90;;;;;;6129563;23;20013;-81
2022/11/20 10:48:48;;;;;;;12.52;8.13;;;3.80;99.90;;;;;;6129698;23;20025;-80
2022/11/20 10:51:31;;;;;;;13.32;8.73;;;3.70;99.90;;;;;;6155791;23;20315;-81
2022/11/20 10:54:03;;;;;;;14.38;8.90;;;3.70;99.90;;;;;;6155745;23;20074;-82
2022/11/20 10:56:45;;;;;;;15.05;9.35;;;3.70;99.90;;;;;;6155794;23;20449;-80
2022/11/20 10:59:27;;;;;;;14.30;8.68;;;3.70;99.90;;;;;;6129848;23;20087;-80
2022/11/20 11:01:53;;;;;;;15.23;8.77;;;3.60;99.90;;;;;;6155641;23;20382;-81
2022/11/20 11:04:44;;;;;;;14.93;9.35;;;3.50;99.90;;;;;;6156009;23;20509;-81
2022/11/20 11:07:19;;;;;;;14.45;9.15;;;3.60;99.90;;;;;;6129665;23;20053;-80
2022/11/20 11:09:52;;;;;;;18.92;11.90;;;3.50;99.90;;;;;;6156133;23;20017;-81
2022/11/20 11:12:19;;;;;;;15.57;10.20;;;3.40;99.90;;;;;;6155890;23;20466;-81
2022/11/20 11:14:50;;;;;;;18.33;12.75;;;3.40;99.90;;;;;;6155494;23;20442;-81
2022/11/20 11:17:34;;;;;;;22.48;12.10;;;3.30;99.90;;;;;;6129652;23;20025;-80
2022/11/20 11:20:18;;;;;;;15.98;9.35;;;3.30;99.90;;;;;;6155842;23;20442;-80
2022/11/20 11:22:49;;;;;;;16.08;9.98;;;3.30;99.90;;;;;;6154957;23;20052;-81
2022/11/20 11:25:40;;;;;;;18.23;10.20;;;3.20;99.90;;;;;;6155115;23;20104;-81
2022/11/20 11:28:21;;;;;;;18.20;11.27;;;3.20;99.90;;;;;;6155324;23;20017;-82
2022/11/20 11:30:49;;;;;;;20.77;10.82;;;3.20;99.90;;;;;;6155235;23;20021;-81
2022/11/20 11:33:29;;;;;;;14.73;9.18;;;3.10;99.90;;;;;;6155435;23;20319;-81
2022/11/20 11:35:58;;;;;;;20.52;11.23;;;3.10;99.90;;;;;;6155797;23;20021;-81
2022/11/20 11:38:39;;;;;;;24.40;13.25;;;3.10;99.90;;;;;;6155480;23;20056;-81
2022/11/20 11:41:07;;;;;;;18.85;10.85;;;3.10;99.90;;;;;;6129396;23;20443;-80
2022/11/20 11:46:19;;;;;;;26.58;14.23;;;3.10;99.90;;;;;;6155803;23;20022;-80
2022/11/20 11:49:04;;;;;;;18.08;10.27;;;3.10;99.90;;;;;;6155401;23;20021;-80
2022/11/20 11:52:03;;;;;;;21.05;12.18;;;3.10;99.90;;;;;;6155843;23;20148;-80
2022/11/20 11:54:43;;;;;;;16.98;9.60;;;3.10;99.90;;;;;;6155591;23;20018;-80
2022/11/20 11:57:23;;;;;;;12.07;7.18;;;3.10;99.90;;;;;;6156279;23;20071;-80
2022/11/20 11:59:52;;;;;;;14.73;8.65;;;3.10;99.90;;;;;;6131156;23;20021;-80
2022/11/20 12:02:41;;;;;;;12.55;7.85;;;3.10;99.90;;;;;;6148436;23;20077;-80
2022/11/20 12:05:29;;;;;;;12.85;8.10;;;3.10;99.90;;;;;;6157431;23;20014;-80
2022/11/20 12:08:04;;;;;;;11.95;7.15;;;3.20;99.90;;;;;;6131079;23;20061;-80
2022/11/20 12:10:34;;;;;;;12.73;7.22;;;3.30;99.90;;;;;;6131047;23;20022;-80
2022/11/20 12:13:18;;;;;;;10.32;6.78;;;3.40;99.90;;;;;;6130829;23;20021;-80
2022/11/20 12:15:46;;;;;;;13.00;5.90;;;3.50;99.90;;;;;;6156840;23;20021;-80
2022/11/20 12:18:19;;;;;;;9.38;5.85;;;3.50;99.90;;;;;;6130923;23;20445;-80
2022/11/20 12:21:02;;;;;;;8.13;4.80;;;3.50;99.90;;;;;;6130895;23;20450;-80
2022/11/20 12:23:49;;;;;;;9.77;6.15;;;3.50;99.90;;;;;;6157276;23;20018;-80
2022/11/20 12:26:28;;;;;;;8.85;4.82;;;3.50;99.90;;;;;;6156795;23;20528;-80
2022/11/20 12:29:03;;;;;;;11.38;5.68;;;3.50;99.90;;;;;;6130656;23;20457;-81
2022/11/20 12:31:44;;;;;;;7.82;4.75;;;3.60;99.90;;;;;;6157090;23;20522;-81
2022/11/20 12:34:37;;;;;;;9.95;5.22;;;3.60;99.90;;;;;;6130924;23;20022;-81
2022/11/20 12:37:21;;;;;;;7.75;4.30;;;3.60;99.90;;;;;;6157851;23;20013;-80
2022/11/20 12:39:50;;;;;;;8.32;4.97;;;3.60;99.90;;;;;;6130949;23;20092;-80
2022/11/20 12:46:07;;;;;;;8.85;5.50;;;3.60;99.90;;;;;;6130866;23;20029;-80
2022/11/20 12:48:51;;;;;;;8.50;5.03;;;3.60;99.90;;;;;;6083053;23;20017;-80
2022/11/20 12:51:43;;;;;;;8.77;5.60;;;3.60;99.90;;;;;;6157326;23;20049;-80
2022/11/20 12:54:39;;;;;;;9.57;5.32;;;3.60;99.90;;;;;;6143468;23;20017;-80
2022/11/20 12:57:08;;;;;;;12.55;6.72;;;3.60;99.90;;;;;;6130743;23;20029;-80
2022/11/20 12:59:56;;;;;;;9.48;5.15;;;3.70;99.90;;;;;;6130763;23;20013;-81
2022/11/20 13:02:42;;;;;;;7.97;4.22;;;3.70;99.90;;;;;;6130616;23;20060;-80
2022/11/20 13:05:14;;;;;;;8.40;4.32;;;3.80;99.90;;;;;;6115219;23;20014;-79
2022/11/20 13:07:41;;;;;;;8.65;5.18;;;3.80;99.90;;;;;;6130755;23;20476;-80
2022/11/20 13:10:18;;;;;;;10.07;5.85;;;3.70;99.90;;;;;;6130173;23;20076;-79
2022/11/20 13:12:47;;;;;;;10.05;6.25;;;3.70;99.90;;;;;;6130606;23;20021;-79
2022/11/20 13:15:37;;;;;;;10.90;6.88;;;3.80;99.90;;;;;;6125485;23;20022;-80
2022/11/20 13:18:07;;;;;;;9.05;5.20;;;3.70;99.90;;;;;;6101274;23;20026;-80